AirNav   Air Wisconsin pilot careers
 
 1170 users online  

AL76 Mayfield (Private) Airport
Maplesville, Alabama, USA

GOING TO MAPLESVILLE?


FAA INFORMATION EFFECTIVE 03 JANUARY 2019

Location

FAA Identifier: AL76
Lat/Long: 32-50-55.4530N / 086-52-11.9580W
32-50.924217N / 086-52.199300W
32.8487369 / -86.8699883
(estimated)
Elevation: 495 ft. / 151 m (estimated)
Variation: 00E (1985)
From city: 5 miles N of MAPLESVILLE, AL
Time zone: UTC -6 (UTC -5 during Daylight Saving Time)
Zip code: 36750

Airport Operations

Airport use: Private use. Permission required prior to landing
Activation date: 06/1987
Control tower: no
ARTCC: ATLANTA CENTER
FSS: ANNISTON FLIGHT SERVICE STATION
Attendance: UNATNDD
Wind indicator: yes
Segmented circle: no

Nearby radio navigation aids

VOR radial/distance  VOR name  Freq  Var
OKWr141/30.2BROOKWOOD VORTAC111.0000E

Airport Services

Runway Information

Runway 2/20

Dimensions: 3200 x 100 ft. / 975 x 30 m
Surface: turf
RUNWAY 2  RUNWAY 20
Traffic pattern: leftleft
Displaced threshold: 200 ft.no
Obstructions: none50 ft. trees, 4000 ft. from runway

Airport Ownership and Management from official FAA records

Ownership: Privately-owned
Owner: JEROME MAYFIELD
958 OLD RANDOLPH RD
MAPLESVILLE, AL 36750
Phone 251-424-0799
Manager: JEROME MAYFIELD
26699 MARTINIQUE DRIVE
ORANGE BEACH, AL 36561
Phone 251-424-0799

Airport Operational Statistics

Aircraft based on the field: 4
Single engine airplanes: 4
    

Instrument Procedures

There are no published instrument procedures at AL76.

Some nearby airports with instrument procedures:

0A8 - Bibb County Airport (12 nm NW)
02A - Chilton County Airport (13 nm E)
KEET - Shelby County Airport (20 nm N)
KEKY - Bessemer Airport (28 nm N)
1A9 - Prattville Airport - Grouby Field (31 nm SE)
 
Loc | Ops | Rwys | IFR | FBO | Links
Com | Nav | Svcs | Stats | Notes
Area around AL76 (Mayfield (Private) Airport)
 
Road maps at: MapQuest Bing Google
 
Aerial photo
No photo
 
Sectional chart

 
Airport distance calculator
Flying to Mayfield (Private) Airport? Find the distance to fly.

From to AL76

Sunrise and sunset
Times for 21-Jan-2019
 Local
(UTC-6)
 Zulu
(UTC)
Morning civil twilight06:2312:23
Sunrise06:4912:49
Sunset17:0823:08
Evening civil twilight17:3523:35

Current date and time
Zulu (UTC)  21-Jan-2019 23:56:08
Local (UTC-6)  21-Jan-2019 17:56:08
 
METAR
KEET 
21nm N 
212253Z AUTO 05003KT 10SM CLR 04/M11 A3038 RMK AO2 SLP291 T00441111
K1A9 
31nm SE 
212335Z AUTO 00000KT 10SM CLR 04/M03 A3037 RMK AO2 T00431026
KSEM 
31nm S 
212335Z AUTO 11003KT 10SM 04/M01 A3037 RMK AO2
KA08 
33nm SW 
212335Z AUTO 00000KT 10SM CLR 06/M04 A3035 RMK AO2 T00561043
KSCD 
34nm NE 
212335Z AUTO 00000KT 10SM SCT110 04/M08 A3038 RMK AO2 T00421082
KMXF 
39nm SE 
212256Z AUTO 06003KT 10SM CLR 08/M05 A3036 RMK AO2 SLP285 T00781053 $
KMGM 
41nm SE 
212253Z 36003KT 10SM CLR 08/M04 A3038 RMK AO2 SLP287 T00781044
TAF
KEET 
21nm N 
211734Z 2118/2218 VRB05KT P6SM SCT250 FM220600 12007KT P6SM SKC
NOTAMs
Click for the latest NOTAMs
NOTAMs are issued by the DoD/FAA and will open in a separate window not controlled by AirNav.

 

 
 

Would you like to see your business listed on this page?

 If your business provides an interesting product or service to pilots, flight crews, aircraft, or users of the Mayfield (Private) Airport, you should consider listing it here.  To start the listing process, click on the button below
 
Add a business
 

Other Pages about Mayfield (Private) Airport

Update a link
 
Copyright © AirNav, LLC. All rights reserved. Privacy Policy  Contact